sensor_id;sensor_type;location;lat;lon;timestamp;P1;durP1;ratioP1;P2;durP2;ratioP2
20593;SDS011;10455;48.732;10.266;2023-07-22T00:00:45;5.80;;;5.20;;
20593;SDS011;10455;48.732;10.266;2023-07-22T00:05:47;5.50;;;4.93;;
20593;SDS011;10455;48.732;10.266;2023-07-22T00:10:51;5.03;;;4.53;;
20593;SDS011;10455;48.732;10.266;2023-07-22T00:15:53;6.37;;;5.77;;
20593;SDS011;10455;48.732;10.266;2023-07-22T00:20:55;5.60;;;5.10;;
20593;SDS011;10455;48.732;10.266;2023-07-22T00:25:58;6.27;;;5.17;;
20593;SDS011;10455;48.732;10.266;2023-07-22T00:31:01;5.00;;;4.57;;
20593;SDS011;10455;48.732;10.266;2023-07-22T00:36:04;5.67;;;5.17;;
20593;SDS011;10455;48.732;10.266;2023-07-22T00:41:08;5.93;;;5.40;;
20593;SDS011;10455;48.732;10.266;2023-07-22T00:46:10;6.77;;;5.37;;
20593;SDS011;10455;48.732;10.266;2023-07-22T00:51:12;6.77;;;5.47;;
20593;SDS011;10455;48.732;10.266;2023-07-22T00:56:15;6.37;;;5.87;;
20593;SDS011;10455;48.732;10.266;2023-07-22T01:01:17;5.37;;;4.93;;
20593;SDS011;10455;48.732;10.266;2023-07-22T01:06:19;6.57;;;5.57;;
20593;SDS011;10455;48.732;10.266;2023-07-22T01:11:23;6.43;;;5.83;;
20593;SDS011;10455;48.732;10.266;2023-07-22T01:16:26;6.47;;;5.53;;
20593;SDS011;10455;48.732;10.266;2023-07-22T01:21:29;6.37;;;5.77;;
20593;SDS011;10455;48.732;10.266;2023-07-22T01:26:32;6.67;;;6.07;;
20593;SDS011;10455;48.732;10.266;2023-07-22T01:31:34;6.20;;;5.67;;
20593;SDS011;10455;48.732;10.266;2023-07-22T01:36:36;6.60;;;6.00;;
20593;SDS011;10455;48.732;10.266;2023-07-22T01:41:39;6.33;;;5.73;;
20593;SDS011;10455;48.732;10.266;2023-07-22T01:46:41;7.50;;;6.80;;
20593;SDS011;10455;48.732;10.266;2023-07-22T01:51:43;6.40;;;5.90;;
20593;SDS011;10455;48.732;10.266;2023-07-22T01:56:47;6.43;;;5.83;;
20593;SDS011;10455;48.732;10.266;2023-07-22T02:01:48;6.60;;;5.47;;
20593;SDS011;10455;48.732;10.266;2023-07-22T02:06:51;9.67;;;5.90;;
20593;SDS011;10455;48.732;10.266;2023-07-22T02:11:54;5.67;;;5.07;;
20593;SDS011;10455;48.732;10.266;2023-07-22T02:16:57;6.73;;;6.03;;
20593;SDS011;10455;48.732;10.266;2023-07-22T02:21:59;6.73;;;5.70;;
20593;SDS011;10455;48.732;10.266;2023-07-22T02:27:02;6.13;;;5.40;;
20593;SDS011;10455;48.732;10.266;2023-07-22T02:32:04;6.40;;;5.80;;
20593;SDS011;10455;48.732;10.266;2023-07-22T02:37:06;5.87;;;5.10;;
20593;SDS011;10455;48.732;10.266;2023-07-22T02:42:09;8.70;;;5.47;;
20593;SDS011;10455;48.732;10.266;2023-07-22T02:47:11;6.97;;;5.47;;
20593;SDS011;10455;48.732;10.266;2023-07-22T02:52:14;7.23;;;6.53;;
20593;SDS011;10455;48.732;10.266;2023-07-22T02:57:17;6.53;;;5.90;;
20593;SDS011;10455;48.732;10.266;2023-07-22T03:02:19;6.40;;;5.73;;
20593;SDS011;10455;48.732;10.266;2023-07-22T03:07:21;8.10;;;6.53;;
20593;SDS011;10455;48.732;10.266;2023-07-22T03:12:27;6.70;;;6.10;;
20593;SDS011;10455;48.732;10.266;2023-07-22T03:17:29;6.73;;;6.00;;
20593;SDS011;10455;48.732;10.266;2023-07-22T03:22:31;6.47;;;5.60;;
20593;SDS011;10455;48.732;10.266;2023-07-22T03:27:35;6.87;;;5.87;;
20593;SDS011;10455;48.732;10.266;2023-07-22T03:32:36;7.17;;;6.47;;
20593;SDS011;10455;48.732;10.266;2023-07-22T03:37:38;6.77;;;6.07;;
20593;SDS011;10455;48.732;10.266;2023-07-22T03:42:42;6.40;;;5.70;;
20593;SDS011;10455;48.732;10.266;2023-07-22T03:47:44;7.27;;;6.57;;
20593;SDS011;10455;48.732;10.266;2023-07-22T03:52:47;12.10;;;7.27;;
20593;SDS011;10455;48.732;10.266;2023-07-22T03:57:50;7.30;;;6.20;;
20593;SDS011;10455;48.732;10.266;2023-07-22T04:02:52;8.20;;;7.27;;
20593;SDS011;10455;48.732;10.266;2023-07-22T04:07:54;7.90;;;7.10;;
20593;SDS011;10455;48.732;10.266;2023-07-22T04:12:57;8.47;;;6.87;;
20593;SDS011;10455;48.732;10.266;2023-07-22T04:17:59;7.10;;;6.40;;
20593;SDS011;10455;48.732;10.266;2023-07-22T04:23:00;7.93;;;6.70;;
20593;SDS011;10455;48.732;10.266;2023-07-22T04:28:04;7.83;;;7.00;;
20593;SDS011;10455;48.732;10.266;2023-07-22T04:33:06;7.10;;;6.40;;
20593;SDS011;10455;48.732;10.266;2023-07-22T04:38:10;9.43;;;7.73;;
20593;SDS011;10455;48.732;10.266;2023-07-22T04:43:13;9.60;;;5.77;;
20593;SDS011;10455;48.732;10.266;2023-07-22T04:48:15;4.63;;;4.23;;
20593;SDS011;10455;48.732;10.266;2023-07-22T04:53:18;4.87;;;3.80;;
20593;SDS011;10455;48.732;10.266;2023-07-22T04:58:22;4.93;;;3.80;;
20593;SDS011;10455;48.732;10.266;2023-07-22T05:03:24;3.70;;;3.30;;
20593;SDS011;10455;48.732;10.266;2023-07-22T05:08:26;3.30;;;2.92;;
20593;SDS011;10455;48.732;10.266;2023-07-22T05:13:29;3.13;;;2.90;;
20593;SDS011;10455;48.732;10.266;2023-07-22T05:18:31;5.38;;;3.08;;
20593;SDS011;10455;48.732;10.266;2023-07-22T05:23:33;3.50;;;2.80;;
20593;SDS011;10455;48.732;10.266;2023-07-22T05:28:36;3.30;;;3.00;;
20593;SDS011;10455;48.732;10.266;2023-07-22T05:33:38;3.50;;;3.20;;
20593;SDS011;10455;48.732;10.266;2023-07-22T05:38:40;3.67;;;2.92;;
20593;SDS011;10455;48.732;10.266;2023-07-22T05:43:43;4.32;;;2.75;;
20593;SDS011;10455;48.732;10.266;2023-07-22T05:48:45;2.80;;;2.38;;
20593;SDS011;10455;48.732;10.266;2023-07-22T05:53:47;2.60;;;2.40;;
20593;SDS011;10455;48.732;10.266;2023-07-22T05:58:50;3.25;;;2.95;;
20593;SDS011;10455;48.732;10.266;2023-07-22T06:03:52;4.13;;;2.70;;
20593;SDS011;10455;48.732;10.266;2023-07-22T06:08:54;2.58;;;2.38;;
20593;SDS011;10455;48.732;10.266;2023-07-22T06:13:57;3.35;;;2.70;;
20593;SDS011;10455;48.732;10.266;2023-07-22T06:18:59;3.33;;;2.50;;
20593;SDS011;10455;48.732;10.266;2023-07-22T06:24:01;2.38;;;2.17;;
20593;SDS011;10455;48.732;10.266;2023-07-22T06:29:04;2.33;;;2.13;;
20593;SDS011;10455;48.732;10.266;2023-07-22T06:34:06;2.97;;;2.30;;
20593;SDS011;10455;48.732;10.266;2023-07-22T06:39:07;3.08;;;2.50;;
20593;SDS011;10455;48.732;10.266;2023-07-22T06:44:11;2.55;;;2.35;;
20593;SDS011;10455;48.732;10.266;2023-07-22T06:49:12;3.45;;;2.45;;
20593;SDS011;10455;48.732;10.266;2023-07-22T06:54:14;2.65;;;2.33;;
20593;SDS011;10455;48.732;10.266;2023-07-22T06:59:18;2.75;;;2.53;;
20593;SDS011;10455;48.732;10.266;2023-07-22T07:04:20;2.38;;;2.17;;
20593;SDS011;10455;48.732;10.266;2023-07-22T07:09:22;4.47;;;2.60;;
20593;SDS011;10455;48.732;10.266;2023-07-22T07:14:25;2.65;;;2.17;;
20593;SDS011;10455;48.732;10.266;2023-07-22T07:19:27;2.42;;;2.20;;
20593;SDS011;10455;48.732;10.266;2023-07-22T07:24:29;2.90;;;2.63;;
20593;SDS011;10455;48.732;10.266;2023-07-22T07:29:32;2.17;;;2.08;;
20593;SDS011;10455;48.732;10.266;2023-07-22T07:34:34;3.17;;;2.30;;
20593;SDS011;10455;48.732;10.266;2023-07-22T07:39:36;4.30;;;1.90;;
20593;SDS011;10455;48.732;10.266;2023-07-22T07:44:39;2.92;;;2.20;;
20593;SDS011;10455;48.732;10.266;2023-07-22T07:49:41;2.30;;;2.10;;
20593;SDS011;10455;48.732;10.266;2023-07-22T07:54:43;2.67;;;1.98;;
20593;SDS011;10455;48.732;10.266;2023-07-22T07:59:46;2.28;;;1.98;;
20593;SDS011;10455;48.732;10.266;2023-07-22T08:04:48;3.13;;;2.13;;
20593;SDS011;10455;48.732;10.266;2023-07-22T08:09:50;2.00;;;1.90;;
20593;SDS011;10455;48.732;10.266;2023-07-22T08:14:54;6.80;;;2.00;;
20593;SDS011;10455;48.732;10.266;2023-07-22T08:19:56;2.25;;;1.92;;
20593;SDS011;10455;48.732;10.266;2023-07-22T08:24:58;2.20;;;2.00;;
20593;SDS011;10455;48.732;10.266;2023-07-22T08:30:01;2.90;;;2.10;;
20593;SDS011;10455;48.732;10.266;2023-07-22T08:35:04;4.03;;;2.17;;
20593;SDS011;10455;48.732;10.266;2023-07-22T08:40:07;2.70;;;2.20;;
20593;SDS011;10455;48.732;10.266;2023-07-22T08:45:11;2.60;;;2.20;;
20593;SDS011;10455;48.732;10.266;2023-07-22T08:50:15;1.83;;;1.73;;
20593;SDS011;10455;48.732;10.266;2023-07-22T08:55:21;3.72;;;1.85;;
20593;SDS011;10455;48.732;10.266;2023-07-22T09:00:25;2.38;;;1.98;;
20593;SDS011;10455;48.732;10.266;2023-07-22T09:05:28;2.40;;;2.20;;
20593;SDS011;10455;48.732;10.266;2023-07-22T09:10:30;2.30;;;1.90;;
20593;SDS011;10455;48.732;10.266;2023-07-22T09:15:35;3.35;;;2.15;;
20593;SDS011;10455;48.732;10.266;2023-07-22T09:20:38;4.45;;;2.30;;
20593;SDS011;10455;48.732;10.266;2023-07-22T09:25:40;2.83;;;2.05;;
20593;SDS011;10455;48.732;10.266;2023-07-22T09:30:43;2.72;;;2.00;;
20593;SDS011;10455;48.732;10.266;2023-07-22T09:35:46;2.05;;;1.85;;
20593;SDS011;10455;48.732;10.266;2023-07-22T09:40:49;2.40;;;2.13;;
20593;SDS011;10455;48.732;10.266;2023-07-22T09:45:52;2.67;;;2.00;;
20593;SDS011;10455;48.732;10.266;2023-07-22T09:50:57;1.90;;;1.80;;
20593;SDS011;10455;48.732;10.266;2023-07-22T09:56:02;3.45;;;2.20;;
20593;SDS011;10455;48.732;10.266;2023-07-22T10:01:06;2.47;;;1.80;;
20593;SDS011;10455;48.732;10.266;2023-07-22T10:06:08;2.33;;;2.15;;
20593;SDS011;10455;48.732;10.266;2023-07-22T10:11:11;2.08;;;1.98;;
20593;SDS011;10455;48.732;10.266;2023-07-22T10:16:15;1.80;;;1.67;;
20593;SDS011;10455;48.732;10.266;2023-07-22T10:21:18;2.05;;;1.85;;
20593;SDS011;10455;48.732;10.266;2023-07-22T10:26:20;2.28;;;2.08;;
20593;SDS011;10455;48.732;10.266;2023-07-22T10:31:23;2.33;;;2.20;;
20593;SDS011;10455;48.732;10.266;2023-07-22T10:36:28;1.75;;;1.65;;
20593;SDS011;10455;48.732;10.266;2023-07-22T10:41:32;4.20;;;2.10;;
20593;SDS011;10455;48.732;10.266;2023-07-22T10:46:40;3.67;;;1.90;;
20593;SDS011;10455;48.732;10.266;2023-07-22T10:51:47;2.40;;;2.20;;
20593;SDS011;10455;48.732;10.266;2023-07-22T10:56:50;2.90;;;2.00;;
20593;SDS011;10455;48.732;10.266;2023-07-22T11:01:53;2.00;;;1.90;;
20593;SDS011;10455;48.732;10.266;2023-07-22T11:06:55;2.58;;;2.05;;
20593;SDS011;10455;48.732;10.266;2023-07-22T11:11:58;2.97;;;2.20;;
20593;SDS011;10455;48.732;10.266;2023-07-22T11:17:02;1.90;;;1.80;;
20593;SDS011;10455;48.732;10.266;2023-07-22T11:22:05;3.38;;;2.10;;
20593;SDS011;10455;48.732;10.266;2023-07-22T11:27:08;2.50;;;2.28;;
20593;SDS011;10455;48.732;10.266;2023-07-22T11:32:15;2.35;;;2.15;;
20593;SDS011;10455;48.732;10.266;2023-07-22T11:37:18;2.50;;;2.22;;
20593;SDS011;10455;48.732;10.266;2023-07-22T11:42:20;2.10;;;1.90;;
20593;SDS011;10455;48.732;10.266;2023-07-22T11:47:28;3.15;;;2.15;;
20593;SDS011;10455;48.732;10.266;2023-07-22T11:52:31;3.53;;;2.08;;
20593;SDS011;10455;48.732;10.266;2023-07-22T11:57:33;2.25;;;2.05;;
20593;SDS011;10455;48.732;10.266;2023-07-22T12:02:36;2.45;;;2.25;;
20593;SDS011;10455;48.732;10.266;2023-07-22T12:07:38;2.50;;;2.30;;
20593;SDS011;10455;48.732;10.266;2023-07-22T12:12:41;2.63;;;2.20;;
20593;SDS011;10455;48.732;10.266;2023-07-22T12:17:51;2.50;;;2.28;;
20593;SDS011;10455;48.732;10.266;2023-07-22T12:22:55;2.40;;;2.20;;
20593;SDS011;10455;48.732;10.266;2023-07-22T12:27:57;2.20;;;2.00;;
20593;SDS011;10455;48.732;10.266;2023-07-22T12:33:01;3.00;;;2.03;;
20593;SDS011;10455;48.732;10.266;2023-07-22T12:38:04;2.55;;;2.20;;
20593;SDS011;10455;48.732;10.266;2023-07-22T12:43:06;3.60;;;2.45;;
20593;SDS011;10455;48.732;10.266;2023-07-22T12:48:09;2.40;;;2.20;;
20593;SDS011;10455;48.732;10.266;2023-07-22T12:53:11;2.83;;;2.53;;
20593;SDS011;10455;48.732;10.266;2023-07-22T12:58:13;1.90;;;1.80;;
20593;SDS011;10455;48.732;10.266;2023-07-22T13:03:17;2.47;;;2.28;;
20593;SDS011;10455;48.732;10.266;2023-07-22T13:08:18;3.30;;;2.17;;
20593;SDS011;10455;48.732;10.266;2023-07-22T13:13:20;2.90;;;2.10;;
20593;SDS011;10455;48.732;10.266;2023-07-22T13:18:24;2.55;;;2.17;;
20593;SDS011;10455;48.732;10.266;2023-07-22T13:23:25;2.92;;;2.30;;
20593;SDS011;10455;48.732;10.266;2023-07-22T13:28:27;2.17;;;1.90;;
20593;SDS011;10455;48.732;10.266;2023-07-22T13:33:30;2.53;;;2.33;;
20593;SDS011;10455;48.732;10.266;2023-07-22T13:38:32;2.50;;;2.30;;
20593;SDS011;10455;48.732;10.266;2023-07-22T13:43:34;3.40;;;2.30;;
20593;SDS011;10455;48.732;10.266;2023-07-22T13:48:37;3.00;;;2.30;;
20593;SDS011;10455;48.732;10.266;2023-07-22T13:53:39;3.60;;;2.50;;
20593;SDS011;10455;48.732;10.266;2023-07-22T13:58:41;2.47;;;2.28;;
20593;SDS011;10455;48.732;10.266;2023-07-22T14:03:44;2.80;;;2.60;;
20593;SDS011;10455;48.732;10.266;2023-07-22T14:08:46;4.30;;;2.38;;
20593;SDS011;10455;48.732;10.266;2023-07-22T14:13:48;2.88;;;2.00;;
20593;SDS011;10455;48.732;10.266;2023-07-22T14:18:53;3.15;;;2.42;;
20593;SDS011;10455;48.732;10.266;2023-07-22T14:23:55;3.22;;;2.65;;
20593;SDS011;10455;48.732;10.266;2023-07-22T14:28:57;2.45;;;2.25;;
20593;SDS011;10455;48.732;10.266;2023-07-22T14:34:00;2.50;;;2.30;;
20593;SDS011;10455;48.732;10.266;2023-07-22T14:39:02;4.82;;;2.20;;
20593;SDS011;10455;48.732;10.266;2023-07-22T14:44:04;2.88;;;2.55;;
20593;SDS011;10455;48.732;10.266;2023-07-22T14:49:07;4.07;;;2.83;;
20593;SDS011;10455;48.732;10.266;2023-07-22T14:54:09;3.85;;;2.40;;
20593;SDS011;10455;48.732;10.266;2023-07-22T14:59:13;4.32;;;2.60;;
20593;SDS011;10455;48.732;10.266;2023-07-22T15:04:17;3.10;;;2.80;;
20593;SDS011;10455;48.732;10.266;2023-07-22T15:09:19;2.88;;;2.53;;
20593;SDS011;10455;48.732;10.266;2023-07-22T15:14:21;3.33;;;2.42;;
20593;SDS011;10455;48.732;10.266;2023-07-22T15:19:25;4.57;;;2.65;;
20593;SDS011;10455;48.732;10.266;2023-07-22T15:24:26;3.72;;;2.70;;
20593;SDS011;10455;48.732;10.266;2023-07-22T15:29:28;4.22;;;3.10;;
20593;SDS011;10455;48.732;10.266;2023-07-22T15:34:32;3.30;;;2.53;;
20593;SDS011;10455;48.732;10.266;2023-07-22T15:39:34;3.08;;;2.80;;
20593;SDS011;10455;48.732;10.266;2023-07-22T15:44:36;3.03;;;2.80;;
20593;SDS011;10455;48.732;10.266;2023-07-22T15:49:39;3.38;;;3.08;;
20593;SDS011;10455;48.732;10.266;2023-07-22T15:54:41;4.97;;;3.08;;
20593;SDS011;10455;48.732;10.266;2023-07-22T15:59:43;3.00;;;2.58;;
20593;SDS011;10455;48.732;10.266;2023-07-22T16:04:46;3.45;;;3.05;;
20593;SDS011;10455;48.732;10.266;2023-07-22T16:09:48;6.90;;;3.60;;
20593;SDS011;10455;48.732;10.266;2023-07-22T16:14:50;3.50;;;3.20;;
20593;SDS011;10455;48.732;10.266;2023-07-22T16:19:53;4.85;;;3.35;;
20593;SDS011;10455;48.732;10.266;2023-07-22T16:24:55;3.75;;;3.35;;
20593;SDS011;10455;48.732;10.266;2023-07-22T16:29:56;3.85;;;3.47;;
20593;SDS011;10455;48.732;10.266;2023-07-22T16:35:00;4.20;;;3.63;;
20593;SDS011;10455;48.732;10.266;2023-07-22T16:40:02;3.47;;;3.17;;
20593;SDS011;10455;48.732;10.266;2023-07-22T16:45:05;4.68;;;3.40;;
20593;SDS011;10455;48.732;10.266;2023-07-22T16:50:09;5.25;;;3.90;;
20593;SDS011;10455;48.732;10.266;2023-07-22T16:55:11;3.72;;;3.38;;
20593;SDS011;10455;48.732;10.266;2023-07-22T17:00:13;4.22;;;3.40;;
20593;SDS011;10455;48.732;10.266;2023-07-22T17:05:17;4.28;;;3.88;;
20593;SDS011;10455;48.732;10.266;2023-07-22T17:10:19;4.80;;;4.15;;
20593;SDS011;10455;48.732;10.266;2023-07-22T17:15:21;5.03;;;3.72;;
20593;SDS011;10455;48.732;10.266;2023-07-22T17:20:24;4.00;;;3.60;;
20593;SDS011;10455;48.732;10.266;2023-07-22T17:25:26;4.70;;;4.13;;
20593;SDS011;10455;48.732;10.266;2023-07-22T17:30:28;6.25;;;4.10;;
20593;SDS011;10455;48.732;10.266;2023-07-22T17:35:31;5.25;;;4.40;;
20593;SDS011;10455;48.732;10.266;2023-07-22T17:40:33;4.53;;;3.70;;
20593;SDS011;10455;48.732;10.266;2023-07-22T17:45:35;4.32;;;3.88;;
20593;SDS011;10455;48.732;10.266;2023-07-22T17:50:38;5.35;;;4.38;;
20593;SDS011;10455;48.732;10.266;2023-07-22T17:55:40;6.07;;;4.13;;
20593;SDS011;10455;48.732;10.266;2023-07-22T18:00:42;5.03;;;3.90;;
20593;SDS011;10455;48.732;10.266;2023-07-22T18:05:48;9.23;;;7.07;;
20593;SDS011;10455;48.732;10.266;2023-07-22T18:10:50;4.75;;;4.20;;
20593;SDS011;10455;48.732;10.266;2023-07-22T18:15:52;4.68;;;4.18;;
20593;SDS011;10455;48.732;10.266;2023-07-22T18:20:55;4.32;;;3.90;;
20593;SDS011;10455;48.732;10.266;2023-07-22T18:25:57;6.28;;;3.97;;
20593;SDS011;10455;48.732;10.266;2023-07-22T18:30:59;4.65;;;3.60;;
20593;SDS011;10455;48.732;10.266;2023-07-22T18:36:02;4.05;;;3.63;;
20593;SDS011;10455;48.732;10.266;2023-07-22T18:41:05;4.60;;;3.75;;
20593;SDS011;10455;48.732;10.266;2023-07-22T18:46:12;5.53;;;3.63;;
20593;SDS011;10455;48.732;10.266;2023-07-22T18:51:17;4.20;;;3.80;;
20593;SDS011;10455;48.732;10.266;2023-07-22T18:56:19;5.32;;;3.90;;
20593;SDS011;10455;48.732;10.266;2023-07-22T19:01:21;4.55;;;3.58;;
20593;SDS011;10455;48.732;10.266;2023-07-22T19:06:24;5.03;;;4.15;;
20593;SDS011;10455;48.732;10.266;2023-07-22T19:11:26;5.47;;;3.88;;
20593;SDS011;10455;48.732;10.266;2023-07-22T19:16:28;4.60;;;3.75;;
20593;SDS011;10455;48.732;10.266;2023-07-22T19:21:31;4.80;;;4.15;;
20593;SDS011;10455;48.732;10.266;2023-07-22T19:26:33;3.97;;;3.40;;
20593;SDS011;10455;48.732;10.266;2023-07-22T19:31:35;4.15;;;3.75;;
20593;SDS011;10455;48.732;10.266;2023-07-22T19:36:38;3.95;;;3.55;;
20593;SDS011;10455;48.732;10.266;2023-07-22T19:41:40;5.22;;;4.30;;
20593;SDS011;10455;48.732;10.266;2023-07-22T19:46:42;4.63;;;3.80;;
20593;SDS011;10455;48.732;10.266;2023-07-22T19:51:45;4.65;;;4.13;;
20593;SDS011;10455;48.732;10.266;2023-07-22T19:56:48;7.30;;;5.57;;
20593;SDS011;10455;48.732;10.266;2023-07-22T20:01:50;4.55;;;3.80;;
20593;SDS011;10455;48.732;10.266;2023-07-22T20:06:53;3.92;;;3.50;;
20593;SDS011;10455;48.732;10.266;2023-07-22T20:11:55;4.43;;;3.70;;
20593;SDS011;10455;48.732;10.266;2023-07-22T20:16:57;4.97;;;4.03;;
20593;SDS011;10455;48.732;10.266;2023-07-22T20:22:00;4.70;;;3.90;;
20593;SDS011;10455;48.732;10.266;2023-07-22T20:27:02;4.57;;;3.55;;
20593;SDS011;10455;48.732;10.266;2023-07-22T20:32:05;4.33;;;3.93;;
20593;SDS011;10455;48.732;10.266;2023-07-22T20:37:08;5.63;;;3.93;;
20593;SDS011;10455;48.732;10.266;2023-07-22T20:42:10;5.00;;;3.97;;
20593;SDS011;10455;48.732;10.266;2023-07-22T20:47:12;5.87;;;4.33;;
20593;SDS011;10455;48.732;10.266;2023-07-22T20:52:16;4.80;;;3.70;;
20593;SDS011;10455;48.732;10.266;2023-07-22T20:57:18;5.13;;;4.17;;
20593;SDS011;10455;48.732;10.266;2023-07-22T21:02:19;5.67;;;4.47;;
20593;SDS011;10455;48.732;10.266;2023-07-22T21:07:23;5.50;;;4.00;;
20593;SDS011;10455;48.732;10.266;2023-07-22T21:12:25;5.40;;;4.30;;
20593;SDS011;10455;48.732;10.266;2023-07-22T21:17:26;7.10;;;3.93;;
20593;SDS011;10455;48.732;10.266;2023-07-22T21:22:30;6.97;;;3.90;;
20593;SDS011;10455;48.732;10.266;2023-07-22T21:27:32;6.20;;;4.37;;
20593;SDS011;10455;48.732;10.266;2023-07-22T21:32:33;6.70;;;4.00;;
20593;SDS011;10455;48.732;10.266;2023-07-22T21:37:37;4.53;;;4.13;;
20593;SDS011;10455;48.732;10.266;2023-07-22T21:42:39;4.67;;;4.10;;
20593;SDS011;10455;48.732;10.266;2023-07-22T21:47:40;5.67;;;4.07;;
20593;SDS011;10455;48.732;10.266;2023-07-22T21:52:44;5.67;;;4.03;;
20593;SDS011;10455;48.732;10.266;2023-07-22T21:57:46;4.60;;;4.20;;
20593;SDS011;10455;48.732;10.266;2023-07-22T22:02:47;4.07;;;3.67;;
20593;SDS011;10455;48.732;10.266;2023-07-22T22:07:52;6.20;;;4.57;;
20593;SDS011;10455;48.732;10.266;2023-07-22T22:12:53;5.23;;;3.93;;
20593;SDS011;10455;48.732;10.266;2023-07-22T22:17:55;5.47;;;4.10;;
20593;SDS011;10455;48.732;10.266;2023-07-22T22:22:58;5.10;;;4.23;;
20593;SDS011;10455;48.732;10.266;2023-07-22T22:28:03;8.33;;;4.43;;
20593;SDS011;10455;48.732;10.266;2023-07-22T22:33:05;4.77;;;3.80;;
20593;SDS011;10455;48.732;10.266;2023-07-22T22:38:08;4.40;;;4.00;;
20593;SDS011;10455;48.732;10.266;2023-07-22T22:43:10;5.27;;;3.93;;
20593;SDS011;10455;48.732;10.266;2023-07-22T22:48:12;4.47;;;4.07;;
20593;SDS011;10455;48.732;10.266;2023-07-22T22:53:15;5.20;;;4.70;;
20593;SDS011;10455;48.732;10.266;2023-07-22T22:58:17;5.37;;;4.87;;
20593;SDS011;10455;48.732;10.266;2023-07-22T23:03:19;5.00;;;4.50;;
20593;SDS011;10455;48.732;10.266;2023-07-22T23:08:22;5.13;;;4.50;;
20593;SDS011;10455;48.732;10.266;2023-07-22T23:13:24;5.33;;;4.83;;
20593;SDS011;10455;48.732;10.266;2023-07-22T23:18:26;5.57;;;4.43;;
20593;SDS011;10455;48.732;10.266;2023-07-22T23:23:29;4.47;;;4.07;;
20593;SDS011;10455;48.732;10.266;2023-07-22T23:28:31;6.37;;;4.80;;
20593;SDS011;10455;48.732;10.266;2023-07-22T23:33:33;6.10;;;4.83;;
20593;SDS011;10455;48.732;10.266;2023-07-22T23:38:36;5.23;;;4.73;;
20593;SDS011;10455;48.732;10.266;2023-07-22T23:43:38;5.70;;;4.60;;
20593;SDS011;10455;48.732;10.266;2023-07-22T23:48:40;4.97;;;4.47;;
20593;SDS011;10455;48.732;10.266;2023-07-22T23:53:43;7.97;;;5.10;;
20593;SDS011;10455;48.732;10.266;2023-07-22T23:58:45;5.77;;;4.57;;
